createdAt,value
2022-11-10T00:03:36.294Z,99717.72
2022-11-10T00:07:38.404Z,99716.00
2022-11-10T00:11:40.189Z,99733.13
2022-11-10T00:16:00.465Z,99737.31
2022-11-10T00:20:02.220Z,99745.84
2022-11-10T00:24:03.776Z,99756.09
2022-11-10T00:28:05.214Z,99755.13
2022-11-10T00:36:34.843Z,99772.03
2022-11-10T00:40:36.329Z,99779.75
2022-11-10T00:44:37.661Z,99783.09
2022-11-10T00:48:38.969Z,99789.94
2022-11-10T00:52:58.844Z,99784.66
2022-11-10T00:57:20.450Z,99785.53
2022-11-10T01:01:24.968Z,99802.66
2022-11-10T01:05:26.292Z,99799.94
2022-11-10T01:09:27.543Z,99813.56
2022-11-10T01:13:29.348Z,99820.09
2022-11-10T01:17:30.787Z,99821.72
2022-11-10T01:21:32.087Z,99819.84
2022-11-10T01:25:33.412Z,99834.41
2022-11-10T01:29:34.740Z,99840.31
2022-11-10T01:33:36.640Z,99839.47
2022-11-10T01:37:38.039Z,99838.47
2022-11-10T01:41:39.484Z,99843.41
2022-11-10T01:45:46.518Z,99849.38
2022-11-10T01:49:48.026Z,99859.59
2022-11-10T01:53:51.140Z,99863.81
2022-11-10T01:57:52.787Z,99868.72
2022-11-10T02:01:56.375Z,99874.75
2022-11-10T02:05:58.652Z,99873.84
2022-11-10T02:10:02.000Z,99863.56
2022-11-10T02:14:03.533Z,99860.28
2022-11-10T02:18:04.857Z,99861.25
2022-11-10T02:22:06.220Z,99869.97
2022-11-10T02:26:07.649Z,99873.41
2022-11-10T02:30:09.164Z,99883.03
2022-11-10T02:34:10.655Z,99884.88
2022-11-10T02:38:12.303Z,99878.13
2022-11-10T02:42:13.551Z,99890.34
2022-11-10T02:46:15.707Z,99891.31
2022-11-10T02:50:17.116Z,99898.47
2022-11-10T02:54:18.468Z,99895.19
2022-11-10T02:58:19.728Z,99895.31
2022-11-10T03:02:21.087Z,99902.34
2022-11-10T03:06:22.314Z,99898.97
2022-11-10T03:10:24.309Z,99905.13
2022-11-10T03:14:25.559Z,99911.31
2022-11-10T03:18:27.384Z,99919.16
2022-11-10T03:22:28.624Z,99918.41
2022-11-10T03:26:29.899Z,99915.06
2022-11-10T03:30:31.367Z,99923.78
2022-11-10T03:34:32.657Z,99920.50
2022-11-10T03:38:33.904Z,99924.13
2022-11-10T03:42:35.169Z,99925.09
2022-11-10T03:46:36.447Z,99925.25
2022-11-10T03:50:37.725Z,99939.97
2022-11-10T03:54:38.964Z,99945.22
2022-11-10T03:58:40.523Z,99958.16
2022-11-10T04:02:41.880Z,99961.75
2022-11-10T04:07:02.020Z,99954.09
2022-11-10T04:11:03.484Z,99966.22
2022-11-10T04:15:24.287Z,99964.69
2022-11-10T04:19:25.856Z,99972.56
2022-11-10T04:23:31.652Z,99982.28
2022-11-10T04:27:32.928Z,99977.34
2022-11-10T04:31:37.276Z,99979.16
2022-11-10T04:35:38.594Z,99983.53
2022-11-10T04:39:40.043Z,99991.41
2022-11-10T04:43:41.723Z,100000.06
2022-11-10T04:47:43.009Z,100014.78
2022-11-10T04:51:44.269Z,100012.31
2022-11-10T04:55:46.135Z,100030.56
2022-11-10T04:59:47.367Z,100032.34
2022-11-10T05:03:49.263Z,100042.75
2022-11-10T05:07:50.597Z,100051.47
2022-11-10T05:11:51.857Z,100048.06
2022-11-10T05:15:53.319Z,100046.44
2022-11-10T05:19:54.856Z,100043.88
2022-11-10T05:23:56.087Z,100045.59
2022-11-10T05:27:57.604Z,100046.47
2022-11-10T05:31:58.861Z,100040.44
2022-11-10T05:36:01.043Z,100042.25
2022-11-10T05:40:02.625Z,100057.78
2022-11-10T05:44:04.248Z,100068.97
2022-11-10T05:48:05.611Z,100069.00
2022-11-10T05:52:06.903Z,100084.56
2022-11-10T05:56:08.223Z,100089.72
2022-11-10T06:00:10.084Z,100095.81
2022-11-10T06:04:11.310Z,100106.84
2022-11-10T06:08:13.280Z,100119.81
2022-11-10T06:12:14.988Z,100124.97
2022-11-10T06:16:16.450Z,100137.13
2022-11-10T06:20:18.206Z,100139.78
2022-11-10T06:24:19.799Z,100144.06
2022-11-10T06:28:21.066Z,100147.59
2022-11-10T06:32:22.383Z,100154.56
2022-11-10T06:36:23.736Z,100166.66
2022-11-10T06:40:25.422Z,100179.63
2022-11-10T06:44:26.827Z,100189.97
2022-11-10T06:48:28.150Z,100196.00
2022-11-10T06:52:31.470Z,100207.22
2022-11-10T06:56:32.792Z,100215.88
2022-11-10T07:00:34.027Z,100227.09
2022-11-10T07:04:35.357Z,100234.06
2022-11-10T07:08:36.690Z,100236.66
2022-11-10T07:12:38.037Z,100240.09
2022-11-10T07:16:39.303Z,100247.06
2022-11-10T07:20:41.028Z,100252.25
2022-11-10T07:24:42.340Z,100255.78
2022-11-10T07:28:43.947Z,100254.06
2022-11-10T07:32:45.179Z,100254.13
2022-11-10T07:36:46.607Z,100260.25
2022-11-10T07:40:50.739Z,100265.50
2022-11-10T07:44:52.004Z,100272.50
2022-11-10T07:48:53.506Z,100277.75
2022-11-10T07:53:05.097Z,100284.78
2022-11-10T07:57:06.582Z,100290.94
2022-11-10T08:01:07.900Z,100292.75
2022-11-10T08:05:09.264Z,100308.38
2022-11-10T08:09:10.547Z,100309.31
2022-11-10T08:13:13.136Z,100316.25
2022-11-10T08:17:15.125Z,100319.78
2022-11-10T08:21:16.417Z,100319.81
2022-11-10T08:25:17.722Z,100328.44
2022-11-10T08:29:18.957Z,100332.81
2022-11-10T08:33:22.141Z,100342.38
2022-11-10T08:37:24.190Z,100345.91
2022-11-10T08:41:25.599Z,100352.91
2022-11-10T08:45:27.220Z,100355.56
2022-11-10T08:49:28.937Z,100362.41
2022-11-10T08:53:30.229Z,100365.00
2022-11-10T08:57:31.581Z,100397.78
2022-11-10T09:01:32.894Z,100394.31
2022-11-10T09:05:36.993Z,100401.28
2022-11-10T09:09:38.264Z,100409.16
2022-11-10T09:13:39.872Z,100410.03
2022-11-10T09:17:41.535Z,100417.88
2022-11-10T09:21:42.856Z,100426.59
2022-11-10T09:25:49.032Z,100430.97
2022-11-10T09:29:50.821Z,100432.69
2022-11-10T09:33:52.073Z,100442.22
2022-11-10T09:37:53.540Z,100437.88
2022-11-10T09:41:54.856Z,100428.34
2022-11-10T09:45:57.815Z,100433.50
2022-11-10T09:50:00.914Z,100437.72
2022-11-10T09:54:04.394Z,100444.72
2022-11-10T09:58:05.815Z,100451.69
2022-11-10T10:02:09.948Z,100451.78
2022-11-10T10:06:12.783Z,100456.91
2022-11-10T10:10:17.883Z,100460.25
2022-11-10T10:14:38.215Z,100461.09
2022-11-10T10:18:39.560Z,100471.47
2022-11-10T10:22:59.845Z,100471.50
2022-11-10T10:27:04.682Z,100467.38
2022-11-10T10:31:18.616Z,100475.25
2022-11-10T10:35:20.582Z,100475.31
2022-11-10T10:39:21.866Z,100480.44
2022-11-10T10:43:23.677Z,100487.41
2022-11-10T10:47:36.153Z,100487.44
2022-11-10T10:51:37.718Z,100477.06
2022-11-10T10:55:39.671Z,100474.50
2022-11-10T10:59:41.040Z,100477.03
2022-11-10T11:03:43.879Z,100478.91
2022-11-10T11:07:55.790Z,100477.22
2022-11-10T11:12:02.047Z,100478.91
2022-11-10T11:16:05.662Z,100474.66
2022-11-10T11:20:14.107Z,100452.28
2022-11-10T11:24:30.724Z,100453.09
2022-11-10T11:28:40.852Z,100464.41
2022-11-10T11:32:54.754Z,100480.09
2022-11-10T11:36:56.073Z,100495.66
2022-11-10T11:41:16.231Z,100500.06
2022-11-10T11:45:17.553Z,100495.03
2022-11-10T11:49:21.919Z,100501.09
2022-11-10T11:53:26.273Z,100501.16
2022-11-10T11:57:34.415Z,100508.06
2022-11-10T12:01:38.390Z,100493.34
2022-11-10T12:05:58.574Z,100488.19
2022-11-10T12:10:15.269Z,100495.13
2022-11-10T12:14:31.746Z,100506.41
2022-11-10T12:18:38.412Z,100501.38
2022-11-10T12:22:42.755Z,100502.31
2022-11-10T12:26:55.661Z,100510.09
2022-11-10T12:31:01.950Z,100505.84
2022-11-10T12:35:21.467Z,100502.44
2022-11-10T12:39:38.030Z,100514.56
2022-11-10T12:43:56.533Z,100518.94
2022-11-10T12:47:59.029Z,100516.22
2022-11-10T12:52:09.008Z,100519.69
2022-11-10T12:56:17.731Z,100520.50
2022-11-10T13:00:22.523Z,100528.28
2022-11-10T13:04:29.729Z,100540.44
2022-11-10T13:08:33.212Z,100539.63
2022-11-10T13:12:34.625Z,100546.63
2022-11-10T13:16:38.824Z,100539.75
2022-11-10T13:20:50.811Z,100542.41
2022-11-10T13:24:52.479Z,100542.38
2022-11-10T13:28:58.252Z,100544.09
2022-11-10T13:33:19.487Z,100544.16
2022-11-10T13:37:30.118Z,100547.59
2022-11-10T13:41:33.292Z,100545.69
2022-11-10T13:45:40.926Z,100547.31
2022-11-10T13:49:51.445Z,100553.44
2022-11-10T13:54:05.810Z,100537.13
2022-11-10T13:58:11.996Z,100544.09
2022-11-10T14:02:34.303Z,100550.25
2022-11-10T14:06:40.406Z,100546.81
2022-11-10T14:10:44.790Z,100542.47
2022-11-10T14:14:49.362Z,100539.06
2022-11-10T14:19:00.239Z,100534.78
2022-11-10T14:23:05.021Z,100547.63
2022-11-10T14:27:08.312Z,100551.81
2022-11-10T14:31:16.228Z,100556.19
2022-11-10T14:35:22.479Z,100556.19
2022-11-10T14:39:27.959Z,100566.63
2022-11-10T14:43:37.433Z,100568.44
2022-11-10T14:47:38.939Z,100566.72
2022-11-10T14:51:40.505Z,100573.63
2022-11-10T14:55:44.051Z,100577.09
2022-11-10T14:59:46.010Z,100580.59
2022-11-10T15:03:47.908Z,100571.97
2022-11-10T15:07:52.811Z,100571.97
2022-11-10T15:12:06.212Z,100579.75
2022-11-10T15:16:26.353Z,100584.94
2022-11-10T15:20:27.628Z,100577.13
2022-11-10T15:24:29.384Z,100583.19
2022-11-10T15:28:32.027Z,100585.78
2022-11-10T15:32:43.854Z,100583.09
2022-11-10T15:36:45.319Z,100584.81
2022-11-10T15:40:47.642Z,100590.00
2022-11-10T15:44:48.948Z,100601.22
2022-11-10T15:48:51.406Z,100593.44
2022-11-10T15:52:52.705Z,100576.00
2022-11-10T15:56:54.064Z,100575.13
2022-11-10T16:00:55.370Z,100582.00
2022-11-10T16:04:59.990Z,100582.75
2022-11-10T16:09:01.610Z,100583.44
2022-11-10T16:13:03.541Z,100578.19
2022-11-10T16:17:05.817Z,100591.97
2022-11-10T16:21:14.730Z,100595.16
2022-11-10T16:25:23.787Z,100592.50
2022-11-10T16:29:28.283Z,100596.66
2022-11-10T16:33:29.652Z,100589.63
2022-11-10T16:37:34.840Z,100599.16
2022-11-10T16:41:36.627Z,100611.19
2022-11-10T16:45:42.000Z,100618.03
2022-11-10T16:49:44.940Z,100621.34
2022-11-10T16:53:46.921Z,100622.94
2022-11-10T16:57:48.660Z,100633.09
2022-11-10T17:01:50.394Z,100636.41
2022-11-10T17:05:52.035Z,100643.16
2022-11-10T17:09:53.748Z,100649.09
2022-11-10T17:13:55.308Z,100648.19
2022-11-10T17:17:58.861Z,100651.53
2022-11-10T17:22:02.314Z,100655.59
2022-11-10T17:26:03.804Z,100661.66
2022-11-10T17:30:05.493Z,100661.63
2022-11-10T17:34:06.819Z,100675.38
2022-11-10T17:38:10.767Z,100675.34
2022-11-10T17:42:13.499Z,100662.38
2022-11-10T17:46:15.240Z,100660.53
2022-11-10T17:50:17.599Z,100660.56
2022-11-10T17:54:18.895Z,100666.59
2022-11-10T17:58:20.722Z,100678.75
2022-11-10T18:02:21.981Z,100680.50
2022-11-10T18:06:23.308Z,100671.09
2022-11-10T18:10:24.655Z,100682.34
2022-11-10T18:14:26.228Z,100689.34
2022-11-10T18:18:27.540Z,100674.63
2022-11-10T18:22:28.944Z,100677.22
2022-11-10T18:26:30.196Z,100678.91
2022-11-10T18:30:35.091Z,100678.06
2022-11-10T18:34:36.727Z,100675.44
2022-11-10T18:38:38.137Z,100686.72
2022-11-10T18:42:39.452Z,100678.13
2022-11-10T18:46:41.820Z,100667.81
2022-11-10T18:50:43.859Z,100667.00
2022-11-10T18:54:53.580Z,100668.72
2022-11-10T18:58:56.964Z,100666.22
2022-11-10T19:02:59.210Z,100651.44
2022-11-10T19:07:00.747Z,100651.44
2022-11-10T19:11:05.676Z,100654.06
2022-11-10T19:15:08.056Z,100658.38
2022-11-10T19:19:10.028Z,100666.25
2022-11-10T19:23:11.324Z,100668.84
2022-11-10T19:27:13.808Z,100674.09
2022-11-10T19:31:16.467Z,100674.94
2022-11-10T19:35:17.907Z,100693.97
2022-11-10T19:39:19.281Z,100706.06
2022-11-10T19:43:21.127Z,100710.41
2022-11-10T19:47:22.784Z,100720.78
2022-11-10T19:51:24.679Z,100725.88
2022-11-10T19:55:25.972Z,100725.72
2022-11-10T19:59:27.275Z,100733.38
2022-11-10T20:03:29.219Z,100732.50
2022-11-10T20:07:49.787Z,100728.06
2022-11-10T20:11:51.133Z,100734.09
2022-11-10T20:15:53.758Z,100721.06
2022-11-10T20:19:55.329Z,100720.06
2022-11-10T20:23:58.704Z,100715.66
2022-11-10T20:28:06.174Z,100723.47
2022-11-10T20:32:07.961Z,100732.97
2022-11-10T20:36:20.392Z,100732.97
2022-11-10T20:40:43.460Z,100745.78
2022-11-10T20:44:43.518Z,100753.47
2022-11-10T20:48:45.791Z,100749.28
2022-11-10T20:52:47.132Z,100754.47
2022-11-10T20:56:48.478Z,100746.59
2022-11-10T21:00:49.949Z,100755.19
2022-11-10T21:04:51.348Z,100760.44
2022-11-10T21:08:53.455Z,100751.78
2022-11-10T21:12:54.746Z,100755.19
2022-11-10T21:16:57.875Z,100756.00
2022-11-10T21:20:59.336Z,100755.03
2022-11-10T21:25:00.688Z,100745.50
2022-11-10T21:29:02.398Z,100737.81
2022-11-10T21:33:04.949Z,100732.66
2022-11-10T21:37:06.534Z,100733.59
2022-11-10T21:41:07.881Z,100730.06
2022-11-10T21:45:09.841Z,100730.91
2022-11-10T21:49:11.207Z,100728.97
2022-11-10T21:53:12.515Z,100740.09
2022-11-10T21:57:13.934Z,100741.81
2022-11-10T22:01:19.178Z,100734.69
2022-11-10T22:05:20.608Z,100744.19
2022-11-10T22:09:41.870Z,100745.09
2022-11-10T22:14:01.732Z,100738.06
2022-11-10T22:18:22.083Z,100746.75
2022-11-10T22:22:23.343Z,100740.81
2022-11-10T22:26:24.790Z,100746.88
2022-11-10T22:30:26.044Z,100756.44
2022-11-10T22:34:27.809Z,100755.53
2022-11-10T22:38:29.934Z,100738.25
2022-11-10T22:42:50.666Z,100731.31
2022-11-10T22:46:52.262Z,100732.19
2022-11-10T22:50:56.967Z,100731.28
2022-11-10T22:54:58.393Z,100739.84
2022-11-10T22:59:00.415Z,100753.59
2022-11-10T23:03:01.812Z,100741.31
2022-11-10T23:07:03.137Z,100749.94
2022-11-10T23:11:06.004Z,100762.94
2022-11-10T23:15:07.737Z,100751.53
2022-11-10T23:19:09.973Z,100761.69
2022-11-10T23:23:11.340Z,100759.06
2022-11-10T23:27:12.607Z,100762.44
2022-11-10T23:31:15.292Z,100750.31
2022-11-10T23:35:16.645Z,100754.44
2022-11-10T23:39:19.104Z,100748.38
2022-11-10T23:43:20.887Z,100746.63
2022-11-10T23:47:22.484Z,100755.22
2022-11-10T23:51:25.647Z,100765.63
2022-11-10T23:55:26.961Z,100767.38
2022-11-10T23:59:28.265Z,100774.38
